Latest Weather Observations for Coober Pedy Airport

IDS60801

Issued at 8:31 am CST Friday 31 July 2015 (issued every 30 minutes, with the page automatically refreshed every 10 minutes)

About weather observations | Map of weather stations | Latest weather observations for SA | Other Formats
Station Details ID: 016090 Name: COOBER PEDY AIRPORT Lat: -29.03 Lon: 134.72 Height: 225.0 m
Data from the previous 72 hours. | See also: Recent months at Coober Pedy Airport
Date/Time
CST
Temp
°C
App
Temp
°C
Dew
Point
Rel
Hum
%
Delta-T
°C
Wind Press
QNH
hPa
Press
MSL
hPa
Rain
since 9 am
mm
Dir
 
Spd
km/h
Gust
km/h
Spd
kts
Gust
kts
31/08:30am 13.5 9.1 7.3 66 3.0 E 20 28 11 15 1021.1 1021.2 0.0
31/08:00am 13.1 8.9 7.3 68 2.8 E 19 24 10 13 1021.1 1021.2 0.0
31/07:30am 12.3 8.4 7.2 71 2.5 E 17 19 9 10 1020.9 1021.0 0.0
31/07:00am 12.2 8.8 7.5 73 2.3 ESE 15 17 8 9 1020.7 1020.8 0.0
31/06:30am 11.7 7.8 7.2 74 2.2 ESE 17 19 9 10 1020.4 1020.5 0.0
31/06:00am 11.9 8.0 7.0 72 2.4 ESE 17 20 9 11 1020.3 1020.4 0.0
31/05:30am 12.1 7.8 6.8 70 2.6 ESE 19 20 10 11 1020.2 1020.2 0.0
31/05:00am 12.3 8.6 6.4 67 2.8 SE 15 17 8 9 1020.5 1020.6 0.0
31/04:30am 12.3 8.4 5.5 63 3.2 SE 15 17 8 9 1020.4 1020.5 0.0
31/04:00am 12.7 8.3 4.7 58 3.7 SE 17 19 9 10 1020.5 1020.6 0.0
31/03:30am 12.7 8.1 3.6 54 4.1 SE 17 20 9 11 1020.7 1020.8 0.0
31/03:00am 13.1 8.3 2.6 49 4.7 SSE 17 19 9 10 1020.8 1020.9 0.0
31/02:30am 14.2 9.3 2.1 44 5.4 SE 17 20 9 11 1021.0 1021.1 0.0
31/02:00am 15.3 10.0 2.1 41 5.9 SE 19 22 10 12 1021.3 1021.4 0.0
31/01:30am 15.0 10.5 2.2 42 5.7 SE 15 17 8 9 1021.7 1021.8 0.0
31/01:00am 14.7 10.2 1.9 42 5.7 SE 15 17 8 9 1021.8 1021.9 0.0
31/12:30am 15.6 11.4 1.7 39 6.2 SE 13 15 7 8 1022.2 1022.2 0.0
31/12:00am 15.9 11.6 1.2 37 6.5 SE 13 15 7 8 1022.4 1022.4 0.0
 
Date/Time
CST
Temp
°C
App
Temp
°C
Dew
Point
Rel
Hum
%
Delta-T
°C
Wind Press
QNH
hPa
Press
MSL
hPa
Rain
since 9 am
mm
Dir
 
Spd
km/h
Gust
km/h
Spd
kts
Gust
kts
30/11:30pm 16.6 12.4 1.5 36 6.7 SE 13 13 7 7 1022.6 1022.6 0.0
30/11:00pm 17.3 13.0 1.3 34 7.2 SE 13 15 7 8 1022.7 1022.7 0.0
30/10:30pm 17.8 14.3 1.3 33 7.4 SE 9 11 5 6 1022.8 1022.8 0.0
30/10:00pm 17.1 13.6 1.5 35 7.0 E 9 11 5 6 1022.6 1022.6 0.0
30/09:30pm 18.4 13.7 1.0 31 7.8 SSE 15 17 8 9 1022.1 1022.1 0.0
30/09:00pm 18.8 13.8 1.3 31 7.9 S 17 17 9 9 1021.8 1021.9 0.0
30/08:30pm 18.6 14.4 1.6 32 7.7 SSE 13 15 7 8 1021.4 1021.5 0.0
30/08:00pm 19.6 14.7 2.0 31 8.2 S 17 17 9 9 1021.1 1021.2 0.0
30/07:30pm 19.9 15.4 2.3 31 8.2 SSW 15 17 8 9 1020.9 1021.0 0.0
30/07:00pm 21.3 16.9 2.6 29 8.9 SSW 15 17 8 9 1020.6 1020.7 0.0
30/06:30pm 22.1 18.1 2.8 28 9.2 SSW 13 15 7 8 1020.4 1020.5 0.0
30/06:00pm 23.3 19.5 1.6 24 10.2 SW 11 13 6 7 1020.1 1020.1 0.0
30/05:30pm 25.0 20.2 0.5 20 11.5 W 15 20 8 11 1020.0 1020.0 0.0
30/05:00pm 25.8 20.3 0.5 19 12.0 W 19 26 10 14 1020.0 1020.0 0.0
30/04:30pm 26.7 22.1 -1.2 16 12.8 WNW 13 20 7 11 1019.6 1019.6 0.0
30/04:00pm 26.4 21.8 -1.4 16 12.7 NW 13 19 7 10 1019.8 1019.8 0.0
30/03:30pm 27.0 21.7 -0.9 16 12.9 WNW 17 22 9 12 1019.8 1019.8 0.0
30/03:00pm 26.7 20.6 -2.1 15 13.0 W 20 30 11 16 1020.1 1020.1 0.0
30/02:30pm 26.6 20.0 -3.1 14 13.2 NW 22 32 12 17 1020.3 1020.4 0.0
30/02:00pm 25.3 18.6 -4.1 14 12.7 NW 22 30 12 16 1020.6 1020.7 0.0
30/01:30pm 25.7 18.9 -4.7 13 13.0 NNW 22 30 12 16 1021.0 1021.1 0.0
30/01:00pm 24.1 16.6 -5.0 14 12.2 NNW 26 30 14 16 1021.5 1021.6 0.0
30/12:30pm 22.7 15.5 -5.2 15 11.5 NW 24 30 13 16 1022.5 1022.5 0.0
30/12:00pm 21.4 15.1 -3.9 18 10.5 NNW 20 26 11 14 1023.2 1023.2 0.0
30/11:30am 19.5 13.0 -2.8 22 9.3 NNW 22 28 12 15 1023.6 1023.6 0.0
30/11:00am 18.2 11.3 -2.7 24 8.7 NNW 24 30 13 16 1024.1 1024.2 0.0
30/10:30am 16.4 8.4 -2.6 27 7.7 N 30 35 16 19 1024.1 1024.2 0.0
30/10:00am 15.3 7.2 -3.1 28 7.4 N 30 35 16 19 1024.3 1024.4 0.0
30/09:30am 13.8 5.8 -2.6 32 6.5 N 30 35 16 19 1024.2 1024.3 0.0
30/09:00am 11.4 4.2 -2.4 38 5.4 N 26 32 14 17 1024.4 1024.5 0.0
30/08:30am 9.2 2.7 -2.7 43 4.5 NNE 22 26 12 14 1024.3 1024.4 0.0
30/08:00am 8.0 1.0 -3.2 45 4.1 NNE 24 28 13 15 1024.0 1024.0 0.0
30/07:30am 7.2 0.6 -3.1 48 3.8 N 22 26 12 14 1023.9 1023.9 0.0
30/07:00am 6.5 0.3 -3.2 50 3.5 N 20 22 11 12 1023.7 1023.7 0.0
30/06:30am 6.1 -0.1 -3.5 50 3.4 NNE 20 22 11 12 1023.5 1023.5 0.0
30/06:00am 6.2 -0.4 -3.7 49 3.5 NNE 22 26 12 14 1023.2 1023.2 0.0
30/05:30am 6.2 -0.4 -3.7 49 3.5 NNE 22 24 12 13 1022.9 1022.9 0.0
30/05:00am 6.6 -0.4 -3.9 47 3.7 NNE 24 26 13 14 1022.9 1022.9 0.0
30/04:30am 6.5 -0.5 -3.7 48 3.6 NNE 24 30 13 16 1023.0 1023.0 0.0
30/04:00am 6.5 0.2 -4.0 47 3.7 NNE 20 24 11 13 1023.1 1023.1 0.0
30/03:30am 7.1 0.4 -4.0 45 3.9 NNE 22 26 12 14 1023.3 1023.3 0.0
30/03:00am 7.6 0.6 -3.9 44 4.1 NNE 24 28 13 15 1023.5 1023.5 0.0
30/02:30am 8.0 1.0 -3.8 43 4.3 NNE 24 28 13 15 1023.7 1023.7 0.0
30/02:00am 7.6 1.3 -4.2 43 4.2 NNE 20 24 11 13 1024.2 1024.3 0.0
30/01:30am 7.6 0.9 -3.9 44 4.1 NNE 22 24 12 13 1024.3 1024.4 0.0
30/01:00am 7.7 1.0 -4.1 43 4.2 NNE 22 24 12 13 1024.4 1024.5 0.0
30/12:30am 7.9 1.6 -4.2 42 4.3 NNE 20 22 11 12 1024.6 1024.7 0.0
30/12:00am 7.7 1.4 -4.4 42 4.3 NNE 20 22 11 12 1024.8 1024.9 0.0
 
Date/Time
CST
Temp
°C
App
Temp
°C
Dew
Point
Rel
Hum
%
Delta-T
°C
Wind Press
QNH
hPa
Press
MSL
hPa
Rain
since 9 am
mm
Dir
 
Spd
km/h
Gust
km/h
Spd
kts
Gust
kts
29/11:30pm 8.2 2.1 -4.2 41 4.4 NNE 19 20 10 11 1025.0 1025.1 0.0
29/11:00pm 8.4 2.1 -4.4 40 4.6 NNE 20 22 11 12 1025.2 1025.3 0.0
29/10:30pm 8.1 2.0 -4.3 41 4.4 NNE 19 20 10 11 1025.3 1025.4 0.0
29/10:00pm 8.6 2.8 -4.2 40 4.6 NNE 17 19 9 10 1025.3 1025.4 0.0
29/09:30pm 8.3 2.5 -4.2 41 4.5 NNE 17 19 9 10 1025.5 1025.6 0.0
29/09:00pm 8.2 2.4 -4.2 41 4.4 NNE 17 17 9 9 1025.6 1025.7 0.0
29/08:30pm 9.5 3.8 -4.1 38 5.0 NNE 17 17 9 9 1025.7 1025.8 0.0
29/08:00pm 10.4 4.7 -4.0 36 5.4 NNE 17 17 9 9 1025.7 1025.8 0.0
29/07:30pm 11.0 5.6 -4.2 34 5.6 NNE 15 15 8 8 1025.6 1025.7 0.0
29/07:00pm 12.4 7.1 -3.8 32 6.2 NE 15 17 8 9 1025.2 1025.3 0.0
29/06:30pm 13.7 8.0 -3.5 30 6.7 NNE 17 20 9 11 1024.9 1025.0 0.0
29/06:00pm 14.5 8.5 -3.3 29 7.0 NNE 19 20 10 11 1024.6 1024.7 0.0
29/05:30pm 16.2 9.9 -3.8 25 7.9 NNE 20 26 11 14 1024.6 1024.7 0.0
29/05:00pm 16.6 9.6 -3.5 25 8.1 N 24 30 13 16 1024.6 1024.7 0.0
29/04:30pm 17.2 9.1 -3.5 24 8.3 N 30 35 16 19 1024.6 1024.7 0.0
29/04:00pm 17.2 8.7 -3.5 24 8.4 N 32 39 17 21 1024.9 1025.0 0.0
29/03:30pm 17.2 8.5 -3.0 25 8.2 N 33 43 18 23 1025.0 1025.1 0.0
29/03:00pm 16.5 6.7 -3.0 26 7.9 N 39 50 21 27 1024.8 1024.9 0.0
29/02:30pm 16.5 8.0 -2.0 28 7.6 NNE 33 43 18 23 1025.5 1025.6 0.0
29/02:00pm 16.2 7.8 -2.3 28 7.6 NNE 32 43 17 23 1026.3 1026.4 0.0
29/01:30pm 15.2 6.7 -1.8 31 7.0 NNE 33 43 18 23 1026.5 1026.6 0.0
29/01:00pm 14.8 5.9 -1.7 32 6.8 NNE 35 44 19 24 1027.4 1027.4 0.0
29/12:30pm 14.3 5.8 -1.7 33 6.5 NNE 33 41 18 22 1028.6 1028.7 0.0
29/12:00pm 13.8 5.9 -1.4 35 6.2 NNE 30 39 16 21 1029.6 1029.7 0.0
29/11:30am 13.3 4.9 -1.4 36 5.9 NNE 33 41 18 22 1030.1 1030.2 0.0
29/11:00am 12.6 5.9 -1.0 39 5.6 N 24 32 13 17 1031.0 1031.1 0.0
29/10:30am 10.4 3.7 -1.0 45 4.5 NNE 24 30 13 16 1031.2 1031.3 0.0
29/10:00am 10.0 1.7 -1.4 45 4.5 NNE 32 39 17 21 1030.6 1030.7 0.0
29/09:30am 9.4 3.5 -1.0 48 4.1 NNE 20 28 11 15 1030.8 1030.9 0.0
29/09:00am 7.6 1.2 -1.4 53 3.4 NE 22 28 12 15 1030.4 1030.5 0.0
29/08:30am 6.1 0.3 -1.5 58 2.8 NNE 19 20 10 11 1030.7 1030.8 0.0
29/08:00am 6.1 0.3 -1.5 58 2.9 NE 19 24 10 13 1030.6 1030.7 0.0
29/07:30am 4.4 -2.0 -2.0 63 2.3 NE 22 26 12 14 1029.9 1030.0 0.0
29/07:00am 4.0 -2.1 -2.4 63 2.3 NE 20 22 11 12 1030.3 1030.4 0.0
29/06:30am 4.9 -0.6 -2.2 60 2.6 NE 17 19 9 10 1030.3 1030.4 0.0
29/06:00am 5.9 0.1 -1.7 58 2.8 NE 19 20 10 11 1029.6 1029.7 0.0
29/05:30am 4.3 -1.2 -2.3 62 2.4 NE 17 20 9 11 1029.7 1029.8 0.0
29/05:00am 4.2 -1.4 -2.6 61 2.4 NE 17 17 9 9 1030.1 1030.2 0.0
29/04:30am 5.3 0.6 -2.0 59 2.7 NNE 13 15 7 8 1030.0 1030.1 0.0
29/04:00am 6.4 0.6 -1.7 56 3.0 NE 19 24 10 13 1029.5 1029.6 0.0
29/03:30am 6.3 0.3 -1.8 56 3.0 NE 20 24 11 13 1029.8 1029.9 0.0
29/03:00am 7.2 0.4 -1.7 53 3.3 NE 24 28 13 15 1030.0 1030.1 0.0
29/02:30am 7.6 0.1 -1.6 52 3.5 NE 28 35 15 19 1029.7 1029.8 0.0
29/02:00am 8.0 0.1 -1.5 51 3.7 NE 30 35 16 19 1029.7 1029.8 0.0
29/01:30am 8.3 0.8 -1.5 50 3.7 NE 28 33 15 18 1030.4 1030.5 0.0
29/01:00am 8.1 1.3 -1.7 50 3.8 NE 24 32 13 17 1030.5 1030.6 0.0
29/12:30am 8.0 0.0 -2.0 49 3.8 NE 30 35 16 19 1030.5 1030.6 0.0
29/12:00am 8.4 0.9 -1.7 49 3.8 NE 28 35 15 19 1030.9 1031.0 0.0
 
Date/Time
CST
Temp
°C
App
Temp
°C
Dew
Point
Rel
Hum
%
Delta-T
°C
Wind Press
QNH
hPa
Press
MSL
hPa
Rain
since 9 am
mm
Dir
 
Spd
km/h
Gust
km/h
Spd
kts
Gust
kts
28/11:30pm 8.2 0.6 -1.9 49 3.8 NE 28 35 15 19 1031.4 1031.4 0.0
28/11:00pm 8.7 1.9 -1.7 48 4.0 ENE 24 32 13 17 1032.3 1032.4 0.0
28/10:30pm 9.3 1.4 -1.7 46 4.2 ENE 30 37 16 20 1032.1 1032.2 0.0
28/10:00pm 9.2 2.7 -2.1 45 4.3 ENE 22 26 12 14 1032.3 1032.4 0.0
28/09:30pm 9.9 2.7 -2.4 42 4.7 ENE 26 32 14 17 1031.7 1031.8 0.0
28/09:00pm 10.0 3.5 -2.3 42 4.7 ENE 22 28 12 15 1031.9 1032.0 0.0
28/08:30pm 10.0 4.5 -2.3 42 4.7 ENE 17 20 9 11 1032.3 1032.4 0.0
28/08:00pm 10.5 5.0 -2.2 41 4.9 NE 17 19 9 10 1032.3 1032.4 0.0
28/07:30pm 11.0 5.9 -2.1 40 5.1 NE 15 17 8 9 1032.1 1032.2 0.0
28/07:00pm 11.6 6.1 -1.9 39 5.3 NE 17 19 9 10 1031.7 1031.8 0.0
28/06:30pm 12.1 7.0 -1.8 38 5.5 ENE 15 19 8 10 1031.8 1031.9 0.0
28/06:00pm 13.6 8.5 -1.6 35 6.1 ENE 15 17 8 9 1032.1 1032.2 0.0
28/05:30pm 14.6 9.2 -1.5 33 6.6 ENE 17 20 9 11 1032.0 1032.1 0.0
28/05:00pm 15.4 9.6 -1.6 31 7.0 ENE 19 24 10 13 1031.9 1032.0 0.0
28/04:30pm 15.7 9.9 -1.4 31 7.1 NE 19 26 10 14 1031.8 1031.9 0.0
28/04:00pm 15.9 10.8 -1.6 30 7.3 NE 15 22 8 12 1032.0 1032.1 0.0
28/03:30pm 16.5 10.6 -1.1 30 7.4 NE 20 28 11 15 1031.8 1031.9 0.0
28/03:00pm 16.2 10.3 -0.9 31 7.2 NE 20 28 11 15 1031.9 1032.0 0.0
28/02:30pm 15.8 10.0 -0.4 33 6.9 NNE 20 30 11 16 1032.0 1032.1 0.0
28/02:00pm 15.7 9.5 -0.1 34 6.8 NNE 22 32 12 17 1032.6 1032.7 0.0
28/01:30pm 14.9 8.0 0.0 36 6.3 NE 26 43 14 23 1032.9 1033.0 0.0
28/01:00pm 15.2 7.9 0.2 36 6.5 NE 28 39 15 21 1033.2 1033.3 0.0
28/12:30pm 14.4 7.2 0.6 39 5.9 NE 28 39 15 21 1033.9 1034.0 0.0
28/12:00pm 13.8 5.8 0.5 40 5.6 NE 32 39 17 21 1034.6 1034.7 0.0
28/11:30am 13.3 5.7 0.7 42 5.3 NE 30 35 16 19 1035.2 1035.3 0.0
28/11:00am 12.2 5.1 1.2 47 4.7 NE 28 35 15 19 1035.8 1036.0 0.0
28/10:30am 11.4 4.3 1.6 51 4.1 ENE 28 33 15 18 1036.1 1036.2 0.0
28/10:00am 10.1 3.8 1.5 55 3.6 ENE 24 28 13 15 1036.5 1036.6 0.0
28/09:30am 9.0 2.7 1.4 59 3.1 E 24 28 13 15 1036.8 1036.9 0.0
28/09:00am 8.3 2.4 1.7 63 2.7 E 22 28 12 15 1036.7 1036.8 0.0

Other Formats:

Comma delimited format used in spreadsheet applications
http://www.bom.gov.au/fwo/IDS60801/IDS60801.95458.axf

JavaScript Object Notation format (JSON) in row-major order
http://www.bom.gov.au/fwo/IDS60801/IDS60801.95458.json